createdAt,value
2018-06-20T00:01:38.929Z,16.23
2018-06-20T00:04:07.339Z,16.13
2018-06-20T00:06:39.461Z,16.67
2018-06-20T00:09:10.738Z,16.90
2018-06-20T00:11:39.360Z,16.10
2018-06-20T00:14:07.766Z,16.27
2018-06-20T00:16:36.334Z,16.93
2018-06-20T00:19:04.638Z,16.30
2018-06-20T00:21:33.179Z,15.50
2018-06-20T00:24:01.925Z,15.37
2018-06-20T00:26:30.452Z,14.47
2018-06-20T00:28:58.967Z,14.87
2018-06-20T00:31:27.468Z,16.13
2018-06-20T00:33:56.414Z,15.07
2018-06-20T00:36:25.000Z,15.37
2018-06-20T00:38:53.535Z,16.60
2018-06-20T00:41:22.081Z,14.80
2018-06-20T00:43:50.676Z,15.80
2018-06-20T00:46:19.509Z,16.03
2018-06-20T00:48:48.202Z,16.77
2018-06-20T00:51:16.676Z,16.40
2018-06-20T00:53:45.651Z,15.53
2018-06-20T00:56:25.115Z,15.03
2018-06-20T00:58:53.568Z,15.60
2018-06-20T01:01:22.595Z,14.53
2018-06-20T01:03:52.033Z,15.47
2018-06-20T01:06:21.093Z,13.80
2018-06-20T01:08:53.650Z,14.70
2018-06-20T01:11:22.816Z,14.20
2018-06-20T01:13:51.554Z,15.83
2018-06-20T01:16:20.104Z,14.37
2018-06-20T01:18:48.732Z,15.63
2018-06-20T01:21:17.144Z,15.43
2018-06-20T01:23:45.896Z,14.63
2018-06-20T01:26:14.469Z,15.60
2018-06-20T01:28:43.158Z,14.30
2018-06-20T01:31:11.756Z,13.77
2018-06-20T01:33:40.297Z,13.50
2018-06-20T01:36:08.931Z,13.80
2018-06-20T01:38:37.372Z,13.63
2018-06-20T01:41:06.001Z,13.27
2018-06-20T01:43:34.543Z,13.13
2018-06-20T01:46:03.263Z,13.00
2018-06-20T01:48:31.920Z,13.53
2018-06-20T01:51:00.574Z,13.97
2018-06-20T01:53:29.144Z,12.40
2018-06-20T01:55:57.435Z,11.47
2018-06-20T01:58:26.452Z,13.17
2018-06-20T02:00:55.179Z,12.87
2018-06-20T02:03:23.921Z,12.17
2018-06-20T02:05:52.445Z,13.43
2018-06-20T02:08:20.892Z,11.30
2018-06-20T02:10:49.773Z,11.87
2018-06-20T02:13:18.294Z,12.10
2018-06-20T02:15:47.095Z,12.13
2018-06-20T02:18:15.760Z,10.60
2018-06-20T02:20:44.220Z,10.77
2018-06-20T02:23:12.823Z,12.53
2018-06-20T02:25:41.697Z,12.37
2018-06-20T02:28:10.149Z,12.03
2018-06-20T02:30:38.476Z,10.97
2018-06-20T02:33:07.220Z,10.67
2018-06-20T02:35:35.772Z,10.07
2018-06-20T02:38:04.433Z,10.23
2018-06-20T02:40:32.864Z,10.03
2018-06-20T02:43:01.103Z,9.10
2018-06-20T02:45:29.574Z,9.23
2018-06-20T02:47:58.778Z,7.77
2018-06-20T02:50:27.441Z,8.60
2018-06-20T02:52:55.871Z,8.33
2018-06-20T02:55:24.549Z,7.37
2018-06-20T02:57:53.040Z,7.80
2018-06-20T03:00:21.749Z,6.80
2018-06-20T03:02:50.363Z,7.73
2018-06-20T03:05:18.992Z,6.83
2018-06-20T03:07:47.517Z,6.80
2018-06-20T03:10:15.941Z,7.00
2018-06-20T03:12:44.393Z,7.10
2018-06-20T03:15:13.004Z,7.17
2018-06-20T03:17:41.470Z,6.63
2018-06-20T03:20:10.036Z,7.10
2018-06-20T03:22:38.689Z,6.40
2018-06-20T03:25:07.356Z,6.67
2018-06-20T03:27:36.022Z,6.53
2018-06-20T03:30:05.687Z,6.30
2018-06-20T03:32:34.341Z,6.10
2018-06-20T03:35:02.765Z,6.63
2018-06-20T03:37:31.318Z,6.37
2018-06-20T03:39:59.916Z,6.07
2018-06-20T03:42:28.740Z,5.57
2018-06-20T03:44:57.367Z,6.20
2018-06-20T03:47:26.260Z,6.30
2018-06-20T03:49:54.644Z,6.57
2018-06-20T03:52:22.985Z,6.37
2018-06-20T03:54:51.500Z,5.50
2018-06-20T03:57:20.100Z,5.60
2018-06-20T03:59:48.573Z,6.27
2018-06-20T04:02:17.385Z,5.77
2018-06-20T04:04:45.901Z,5.13
2018-06-20T04:07:14.703Z,5.07
2018-06-20T04:09:43.174Z,5.97
2018-06-20T04:12:11.686Z,6.20
2018-06-20T04:14:40.189Z,5.80
2018-06-20T04:17:08.849Z,5.83
2018-06-20T04:19:37.412Z,6.13
2018-06-20T04:22:05.934Z,6.30
2018-06-20T04:24:34.564Z,6.27
2018-06-20T04:27:03.041Z,6.40
2018-06-20T04:29:31.694Z,6.67
2018-06-20T04:32:00.230Z,6.70
2018-06-20T04:34:28.804Z,6.37
2018-06-20T04:36:57.308Z,7.10
2018-06-20T04:39:26.308Z,7.13
2018-06-20T04:41:55.078Z,6.60
2018-06-20T04:44:23.492Z,6.63
2018-06-20T04:46:52.255Z,7.50
2018-06-20T04:49:20.605Z,6.33
2018-06-20T04:51:49.520Z,6.60
2018-06-20T04:54:17.985Z,6.47
2018-06-20T04:56:46.732Z,6.37
2018-06-20T04:59:15.133Z,6.83
2018-06-20T05:01:43.585Z,7.00
2018-06-20T05:04:12.193Z,6.77
2018-06-20T05:06:40.532Z,6.10
2018-06-20T05:09:19.506Z,7.00
2018-06-20T05:11:49.728Z,5.17
2018-06-20T05:14:19.037Z,6.67
2018-06-20T05:16:47.925Z,6.13
2018-06-20T05:19:16.354Z,6.00
2018-06-20T05:21:44.933Z,5.97
2018-06-20T05:24:13.376Z,6.87
2018-06-20T05:26:42.040Z,6.57
2018-06-20T05:29:11.064Z,6.37
2018-06-20T05:31:39.548Z,6.17
2018-06-20T05:34:08.055Z,6.03
2018-06-20T05:36:36.686Z,6.23
2018-06-20T05:39:09.055Z,6.47
2018-06-20T05:41:37.454Z,5.70
2018-06-20T05:44:06.239Z,6.13
2018-06-20T05:46:34.899Z,6.30
2018-06-20T05:49:03.468Z,6.70
2018-06-20T05:51:32.252Z,6.03
2018-06-20T05:54:01.117Z,6.17
2018-06-20T05:56:29.500Z,5.77
2018-06-20T05:58:58.011Z,5.80
2018-06-20T06:01:27.748Z,5.33
2018-06-20T06:03:56.702Z,5.33
2018-06-20T06:06:25.488Z,5.93
2018-06-20T06:08:54.014Z,6.20
2018-06-20T06:11:22.694Z,5.87
2018-06-20T06:13:51.316Z,5.33
2018-06-20T06:16:19.888Z,5.53
2018-06-20T06:18:48.784Z,6.77
2018-06-20T06:21:17.684Z,7.47
2018-06-20T06:23:46.171Z,6.90
2018-06-20T06:26:14.983Z,6.87
2018-06-20T06:28:43.416Z,7.50
2018-06-20T06:31:12.030Z,6.83
2018-06-20T06:33:40.577Z,6.03
2018-06-20T06:36:09.312Z,6.20
2018-06-20T06:38:38.033Z,6.10
2018-06-20T06:41:06.643Z,6.33
2018-06-20T06:43:35.174Z,5.83
2018-06-20T06:46:10.772Z,5.40
2018-06-20T06:48:39.496Z,5.83
2018-06-20T06:51:08.014Z,5.20
2018-06-20T06:53:36.249Z,5.13
2018-06-20T06:56:04.720Z,4.60
2018-06-20T06:58:33.071Z,3.97
2018-06-20T07:01:01.677Z,4.30
2018-06-20T07:03:30.561Z,4.00
2018-06-20T07:05:59.309Z,4.97
2018-06-20T07:08:27.687Z,4.20
2018-06-20T07:10:56.545Z,3.97
2018-06-20T07:13:25.390Z,4.13
2018-06-20T07:15:53.772Z,4.30
2018-06-20T07:18:22.208Z,4.20
2018-06-20T07:20:50.722Z,4.10
2018-06-20T07:23:19.281Z,4.33
2018-06-20T07:25:47.700Z,3.80
2018-06-20T07:28:16.261Z,3.67
2018-06-20T07:30:45.520Z,3.33
2018-06-20T07:33:14.005Z,3.37
2018-06-20T07:35:43.024Z,3.80
2018-06-20T07:38:11.811Z,3.70
2018-06-20T07:40:43.516Z,3.20
2018-06-20T07:43:12.321Z,3.07
2018-06-20T07:45:40.829Z,3.53
2018-06-20T07:48:09.578Z,3.20
2018-06-20T07:50:38.237Z,2.80
2018-06-20T07:53:06.772Z,3.60
2018-06-20T07:55:35.342Z,3.00
2018-06-20T07:58:04.217Z,2.70
2018-06-20T08:00:38.423Z,2.50
2018-06-20T08:03:17.365Z,3.27
2018-06-20T08:05:51.687Z,2.70
2018-06-20T08:08:25.625Z,2.97
2018-06-20T08:10:59.940Z,2.67
2018-06-20T08:13:34.227Z,2.60
2018-06-20T08:16:08.205Z,2.80
2018-06-20T08:18:43.175Z,2.70
2018-06-20T08:21:11.688Z,2.63
2018-06-20T08:23:40.264Z,2.80
2018-06-20T08:26:08.696Z,3.17
2018-06-20T08:28:37.221Z,2.97
2018-06-20T08:31:05.592Z,3.00
2018-06-20T08:33:34.055Z,3.70
2018-06-20T08:36:02.534Z,2.80
2018-06-20T08:38:31.154Z,2.73
2018-06-20T08:40:59.498Z,3.40
2018-06-20T08:43:28.141Z,3.60
2018-06-20T08:45:56.658Z,2.87
2018-06-20T08:48:25.151Z,3.33
2018-06-20T08:50:53.765Z,3.63
2018-06-20T08:53:22.621Z,3.30
2018-06-20T08:55:51.464Z,3.20
2018-06-20T08:58:19.841Z,3.03
2018-06-20T09:00:54.012Z,3.27
2018-06-20T09:03:23.090Z,3.33
2018-06-20T09:05:57.434Z,3.40
2018-06-20T09:08:31.401Z,3.10
2018-06-20T09:11:05.367Z,3.00
2018-06-20T09:13:40.715Z,3.13
2018-06-20T09:16:14.900Z,2.60
2018-06-20T09:18:48.987Z,3.10
2018-06-20T09:21:17.258Z,3.00
2018-06-20T09:23:45.852Z,2.60
2018-06-20T09:26:14.099Z,2.33
2018-06-20T09:28:42.632Z,2.80
2018-06-20T09:31:11.371Z,2.77
2018-06-20T09:33:40.277Z,2.80
2018-06-20T09:36:09.240Z,2.80
2018-06-20T09:38:37.961Z,2.30
2018-06-20T09:41:06.529Z,2.47
2018-06-20T09:43:36.416Z,2.30
2018-06-20T09:46:05.105Z,2.63
2018-06-20T09:48:33.476Z,2.63
2018-06-20T09:51:02.083Z,3.10
2018-06-20T09:53:30.873Z,2.90
2018-06-20T09:55:59.454Z,3.17
2018-06-20T09:58:27.853Z,3.00
2018-06-20T10:01:01.894Z,3.10
2018-06-20T10:03:36.215Z,3.17
2018-06-20T10:07:10.358Z,2.70
2018-06-20T10:09:44.433Z,4.07
2018-06-20T10:12:18.549Z,3.40
2018-06-20T10:14:47.185Z,3.27
2018-06-20T10:17:15.762Z,3.33
2018-06-20T10:19:44.437Z,2.83
2018-06-20T10:22:13.247Z,3.20
2018-06-20T10:24:42.402Z,3.50
2018-06-20T10:27:10.843Z,3.33
2018-06-20T10:29:39.595Z,3.30
2018-06-20T10:32:08.066Z,3.10
2018-06-20T10:34:36.568Z,3.30
2018-06-20T10:37:05.203Z,2.83
2018-06-20T10:39:33.772Z,2.70
2018-06-20T10:42:02.362Z,2.70
2018-06-20T10:44:31.251Z,2.73
2018-06-20T10:47:05.419Z,2.50
2018-06-20T10:49:34.024Z,2.70
2018-06-20T10:52:02.789Z,2.67
2018-06-20T10:54:31.402Z,2.30
2018-06-20T10:57:05.588Z,2.47
2018-06-20T10:59:39.688Z,2.07
2018-06-20T11:02:13.708Z,2.70
2018-06-20T11:04:47.946Z,2.50
2018-06-20T11:07:22.050Z,2.47
2018-06-20T11:09:56.033Z,2.60
2018-06-20T11:12:30.184Z,2.63
2018-06-20T11:14:58.760Z,2.60
2018-06-20T11:17:29.160Z,2.20
2018-06-20T11:20:02.226Z,2.43
2018-06-20T11:22:30.928Z,2.30
2018-06-20T11:24:59.762Z,2.30
2018-06-20T11:27:28.208Z,2.40
2018-06-20T11:29:56.719Z,2.50
2018-06-20T11:32:25.465Z,2.50
2018-06-20T11:34:54.344Z,2.67
2018-06-20T11:37:23.343Z,2.63
2018-06-20T11:39:52.145Z,2.80
2018-06-20T11:42:21.078Z,2.50
2018-06-20T11:44:49.717Z,2.70
2018-06-20T11:47:24.023Z,2.53
2018-06-20T11:49:52.646Z,2.60
2018-06-20T11:52:26.792Z,2.60
2018-06-20T11:54:59.806Z,2.53
2018-06-20T11:57:28.491Z,2.70
2018-06-20T12:00:02.668Z,2.87
2018-06-20T12:02:36.751Z,2.67
2018-06-20T12:05:10.690Z,2.60
2018-06-20T12:07:44.973Z,2.37
2018-06-20T12:10:19.372Z,2.60
2018-06-20T12:12:53.648Z,2.50
2018-06-20T12:15:29.208Z,2.40
2018-06-20T12:18:03.297Z,2.70
2018-06-20T12:20:37.446Z,2.20
2018-06-20T12:23:11.603Z,2.80
2018-06-20T12:25:45.928Z,2.73
2018-06-20T12:28:20.090Z,2.40
2018-06-20T12:30:54.209Z,2.50
2018-06-20T12:33:28.317Z,2.50
2018-06-20T12:36:02.270Z,2.50
2018-06-20T12:38:36.697Z,2.77
2018-06-20T12:41:11.219Z,3.00
2018-06-20T12:43:45.520Z,2.37
2018-06-20T12:46:19.384Z,2.70
2018-06-20T12:48:47.839Z,2.87
2018-06-20T12:51:16.195Z,2.37
2018-06-20T12:53:44.835Z,2.57
2018-06-20T12:56:13.267Z,2.30
2018-06-20T12:58:42.299Z,2.67
2018-06-20T13:01:10.861Z,2.43
2018-06-20T13:03:39.151Z,2.50
2018-06-20T13:06:07.517Z,2.43
2018-06-20T13:08:36.346Z,2.60
2018-06-20T13:11:05.024Z,2.53
2018-06-20T13:13:33.523Z,2.73
2018-06-20T13:16:02.237Z,2.63
2018-06-20T13:18:30.801Z,2.47
2018-06-20T13:20:59.229Z,2.43
2018-06-20T13:23:28.059Z,2.40
2018-06-20T13:25:56.552Z,2.60
2018-06-20T13:28:25.266Z,2.40
2018-06-20T13:30:59.234Z,2.43
2018-06-20T13:33:33.616Z,2.40
2018-06-20T13:36:07.719Z,2.50
2018-06-20T13:38:42.013Z,2.50
2018-06-20T13:41:16.119Z,2.30
2018-06-20T13:43:50.394Z,2.60
2018-06-20T13:46:24.459Z,2.30
2018-06-20T13:48:55.772Z,2.70
2018-06-20T13:51:24.196Z,2.27
2018-06-20T13:53:52.729Z,2.50
2018-06-20T13:56:21.268Z,2.43
2018-06-20T13:58:49.881Z,2.60
2018-06-20T14:01:18.266Z,2.22
2018-06-20T14:03:47.040Z,2.20
2018-06-20T14:06:15.827Z,2.67
2018-06-20T14:08:45.249Z,2.10
2018-06-20T14:11:13.687Z,2.65
2018-06-20T14:13:42.130Z,2.65
2018-06-20T14:16:10.750Z,2.42
2018-06-20T14:18:39.441Z,2.70
2018-06-20T14:21:13.602Z,2.58
2018-06-20T14:23:42.340Z,2.50
2018-06-20T14:26:11.009Z,2.30
2018-06-20T14:28:39.607Z,2.30
2018-06-20T14:31:14.200Z,2.40
2018-06-20T14:33:48.313Z,2.02
2018-06-20T14:36:22.412Z,2.20
2018-06-20T14:38:56.630Z,1.85
2018-06-20T14:41:25.695Z,2.17
2018-06-20T14:43:59.736Z,2.40
2018-06-20T14:46:30.050Z,2.30
2018-06-20T14:48:58.664Z,2.42
2018-06-20T14:51:27.282Z,2.37
2018-06-20T14:53:55.766Z,2.60
2018-06-20T14:56:24.562Z,2.30
2018-06-20T14:58:53.348Z,2.62
2018-06-20T15:01:21.889Z,2.00
2018-06-20T15:03:50.493Z,2.37
2018-06-20T15:06:18.987Z,2.30
2018-06-20T15:08:47.765Z,2.75
2018-06-20T15:11:16.317Z,2.30
2018-06-20T15:13:44.815Z,2.30
2018-06-20T15:16:18.620Z,2.22
2018-06-20T15:18:47.234Z,2.12
2018-06-20T15:21:15.653Z,2.10
2018-06-20T15:23:44.266Z,2.10
2018-06-20T15:26:18.097Z,1.98
2018-06-20T15:28:52.108Z,2.40
2018-06-20T15:31:26.244Z,2.33
2018-06-20T15:34:00.404Z,2.37
2018-06-20T15:36:34.305Z,3.00
2018-06-20T15:39:03.046Z,5.12
2018-06-20T15:41:31.450Z,5.37
2018-06-20T15:44:00.121Z,4.60
2018-06-20T15:46:28.652Z,5.70
2018-06-20T15:48:57.084Z,5.30
2018-06-20T15:51:25.746Z,4.60
2018-06-20T15:53:54.270Z,3.87
2018-06-20T15:56:23.041Z,3.60
2018-06-20T15:58:51.528Z,3.57
2018-06-20T16:01:19.922Z,3.20
2018-06-20T16:03:48.757Z,3.00
2018-06-20T16:06:17.403Z,4.17
2018-06-20T16:08:51.606Z,4.00
2018-06-20T16:11:20.003Z,3.20
2018-06-20T16:13:48.501Z,3.67
2018-06-20T16:16:16.812Z,3.27
2018-06-20T16:18:51.160Z,2.97
2018-06-20T16:21:25.471Z,3.10
2018-06-20T16:23:59.462Z,3.00
2018-06-20T16:26:33.592Z,4.23
2018-06-20T16:29:07.656Z,4.20
2018-06-20T16:31:36.031Z,3.13
2018-06-20T16:34:04.455Z,3.00
2018-06-20T16:36:33.266Z,3.03
2018-06-20T16:39:01.677Z,2.63
2018-06-20T16:41:30.050Z,3.00
2018-06-20T16:43:58.351Z,2.60
2018-06-20T16:46:26.890Z,3.07
2018-06-20T16:48:55.741Z,2.53
2018-06-20T16:51:24.726Z,3.20
2018-06-20T16:53:53.677Z,3.00
2018-06-20T16:56:22.337Z,3.00
2018-06-20T16:58:50.808Z,3.40
2018-06-20T17:01:24.910Z,3.30
2018-06-20T17:03:53.437Z,3.53
2018-06-20T17:06:22.180Z,3.30
2018-06-20T17:08:50.776Z,3.57
2018-06-20T17:11:19.213Z,3.10
2018-06-20T17:13:53.565Z,3.63
2018-06-20T17:16:27.631Z,3.33
2018-06-20T17:19:01.632Z,3.50
2018-06-20T17:21:35.770Z,3.40
2018-06-20T17:24:09.928Z,3.50
2018-06-20T17:26:38.436Z,4.30
2018-06-20T17:29:06.888Z,3.97
2018-06-20T17:31:35.811Z,3.87
2018-06-20T17:34:04.482Z,4.30
2018-06-20T17:36:33.245Z,4.50
2018-06-20T17:39:01.747Z,4.70
2018-06-20T17:41:30.391Z,4.40
2018-06-20T17:43:58.767Z,4.47
2018-06-20T17:46:27.521Z,5.30
2018-06-20T17:48:56.316Z,3.90
2018-06-20T17:51:25.162Z,4.87
2018-06-20T17:53:53.742Z,4.50
2018-06-20T17:56:22.716Z,4.00
2018-06-20T17:58:51.695Z,4.43
2018-06-20T18:01:20.024Z,4.00
2018-06-20T18:03:48.694Z,4.20
2018-06-20T18:06:22.637Z,5.20
2018-06-20T18:08:56.540Z,4.17
2018-06-20T18:11:30.929Z,3.43
2018-06-20T18:14:05.049Z,3.53
2018-06-20T18:16:39.018Z,3.30
2018-06-20T18:19:07.412Z,2.87
2018-06-20T18:21:35.760Z,2.80
2018-06-20T18:24:04.309Z,3.07
2018-06-20T18:26:33.186Z,3.50
2018-06-20T18:29:01.566Z,3.43
2018-06-20T18:31:30.333Z,2.90
2018-06-20T18:33:58.901Z,3.17
2018-06-20T18:36:27.564Z,3.17
2018-06-20T18:38:56.392Z,2.53
2018-06-20T18:41:24.660Z,2.50
2018-06-20T18:43:53.537Z,2.37
2018-06-20T18:46:22.166Z,2.30
2018-06-20T18:48:50.858Z,2.33
2018-06-20T18:51:19.567Z,2.53
2018-06-20T18:53:48.452Z,2.77
2018-06-20T18:56:16.969Z,2.63
2018-06-20T18:58:51.253Z,2.50
2018-06-20T19:01:25.315Z,2.77
2018-06-20T19:03:59.576Z,2.67
2018-06-20T19:06:33.783Z,2.97
2018-06-20T19:09:07.726Z,3.73
2018-06-20T19:11:36.135Z,4.20
2018-06-20T19:14:04.963Z,3.37
2018-06-20T19:16:33.561Z,3.73
2018-06-20T19:19:02.104Z,3.33
2018-06-20T19:21:31.024Z,3.67
2018-06-20T19:23:59.716Z,3.53
2018-06-20T19:26:28.177Z,3.30
2018-06-20T19:28:56.909Z,3.83
2018-06-20T19:31:25.691Z,4.53
2018-06-20T19:33:54.328Z,4.23
2018-06-20T19:36:23.015Z,5.87
2018-06-20T19:38:51.413Z,5.43
2018-06-20T19:41:20.056Z,5.07
2018-06-20T19:43:54.135Z,5.00
2018-06-20T19:46:22.988Z,5.47
2018-06-20T19:48:51.428Z,5.27
2018-06-20T19:51:19.892Z,5.20
2018-06-20T19:53:48.538Z,5.33
2018-06-20T19:56:16.880Z,5.03
2018-06-20T19:58:45.281Z,5.23
2018-06-20T20:01:13.922Z,4.77
2018-06-20T20:03:42.440Z,5.23
2018-06-20T20:06:11.221Z,4.93
2018-06-20T20:08:39.793Z,5.50
2018-06-20T20:11:08.684Z,5.17
2018-06-20T20:13:37.408Z,5.57
2018-06-20T20:16:05.753Z,5.80
2018-06-20T20:18:34.351Z,5.10
2018-06-20T20:21:03.325Z,5.40
2018-06-20T20:23:31.729Z,6.23
2018-06-20T20:26:00.195Z,6.83
2018-06-20T20:28:28.620Z,6.60
2018-06-20T20:30:57.734Z,6.90
2018-06-20T20:33:26.183Z,8.10
2018-06-20T20:35:54.725Z,9.50
2018-06-20T20:38:23.141Z,10.80
2018-06-20T20:40:51.925Z,10.97
2018-06-20T20:43:20.964Z,10.33
2018-06-20T20:45:49.496Z,9.60
2018-06-20T20:48:18.020Z,9.27
2018-06-20T20:50:46.753Z,7.53
2018-06-20T20:53:15.536Z,6.53
2018-06-20T20:55:44.426Z,7.17
2018-06-20T20:58:13.032Z,7.30
2018-06-20T21:00:41.701Z,8.57
2018-06-20T21:03:10.141Z,8.77
2018-06-20T21:05:38.701Z,9.60
2018-06-20T21:08:07.257Z,9.23
2018-06-20T21:10:36.130Z,10.67
2018-06-20T21:13:04.693Z,9.83
2018-06-20T21:15:33.284Z,8.80
2018-06-20T21:18:01.850Z,8.80
2018-06-20T21:20:30.749Z,8.53
2018-06-20T21:22:59.472Z,8.47
2018-06-20T21:25:28.121Z,7.97
2018-06-20T21:27:56.767Z,7.23
2018-06-20T21:30:25.182Z,7.37
2018-06-20T21:32:53.874Z,6.37
2018-06-20T21:35:22.432Z,5.90
2018-06-20T21:37:50.916Z,5.67
2018-06-20T21:40:19.720Z,5.80
2018-06-20T21:42:48.386Z,5.20
2018-06-20T21:45:16.683Z,5.50
2018-06-20T21:47:45.295Z,5.27
2018-06-20T21:50:13.821Z,4.60
2018-06-20T21:52:42.489Z,4.30
2018-06-20T21:55:11.188Z,4.37
2018-06-20T21:57:39.653Z,4.80
2018-06-20T22:00:10.445Z,4.83
2018-06-20T22:02:39.517Z,4.70
2018-06-20T22:05:08.639Z,5.03
2018-06-20T22:07:37.816Z,5.13
2018-06-20T22:10:07.180Z,5.13
2018-06-20T22:12:35.717Z,5.00
2018-06-20T22:15:04.345Z,5.30
2018-06-20T22:17:33.092Z,5.10
2018-06-20T22:20:01.956Z,5.80
2018-06-20T22:22:30.414Z,5.33
2018-06-20T22:24:59.077Z,5.63
2018-06-20T22:27:27.875Z,6.30
2018-06-20T22:29:56.348Z,5.93
2018-06-20T22:32:24.797Z,5.83
2018-06-20T22:34:53.134Z,5.87
2018-06-20T22:37:21.847Z,6.30
2018-06-20T22:39:50.400Z,6.10
2018-06-20T22:42:19.098Z,6.23
2018-06-20T22:44:47.674Z,6.10
2018-06-20T22:47:16.123Z,5.80
2018-06-20T22:49:44.668Z,6.37
2018-06-20T22:52:13.396Z,6.27
2018-06-20T22:54:42.275Z,6.67
2018-06-20T22:57:10.728Z,6.40
2018-06-20T22:59:39.053Z,6.37
2018-06-20T23:02:07.544Z,6.93
2018-06-20T23:04:36.017Z,6.60
2018-06-20T23:07:04.732Z,6.83
2018-06-20T23:09:33.205Z,6.50
2018-06-20T23:12:01.763Z,6.60
2018-06-20T23:14:30.399Z,8.13
2018-06-20T23:16:58.803Z,7.70
2018-06-20T23:19:27.509Z,9.00
2018-06-20T23:21:56.114Z,10.30
2018-06-20T23:24:24.651Z,9.27
2018-06-20T23:26:53.207Z,8.20
2018-06-20T23:29:21.707Z,6.90
2018-06-20T23:31:50.355Z,6.80
2018-06-20T23:34:18.876Z,6.90
2018-06-20T23:36:47.528Z,7.53
2018-06-20T23:39:16.095Z,7.43
2018-06-20T23:41:44.786Z,6.60
2018-06-20T23:44:13.475Z,6.60
2018-06-20T23:46:41.973Z,7.20
2018-06-20T23:49:10.641Z,6.40
2018-06-20T23:51:39.368Z,5.97
2018-06-20T23:54:08.045Z,5.87
2018-06-20T23:56:36.583Z,4.80
2018-06-20T23:59:05.227Z,4.93
